Time;durP1;ratioP1;P1;durP2;ratioP2;P2;SDS_P1;SDS_P2;PMS_P1;PMS_P2;Temp;Humidity;BMP_temperature;BMP_pressure;BME280_temperature;BME280_humidity;BME280_pressure;Samples;Min_cycle;Max_cycle;Signal;HPM_P1;HPM_P2
2023/06/24 00:00:43;;;;;;;1.98;0.90;;;;;;;16.30;100.00;98873.97;2589356;28;20045;-85
2023/06/24 00:02:20;;;;;;;1.35;1.25;;;;;;;16.07;100.00;98881.16;2592442;28;20128;-84
2023/06/24 00:03:37;;;;;;;1.10;1.00;;;;;;;16.28;100.00;98882.00;2593708;28;20060;-84
2023/06/24 00:04:52;;;;;;;1.50;1.40;;;;;;;16.46;100.00;98879.44;2593671;28;20061;-84
2023/06/24 00:06:08;;;;;;;1.33;1.23;;;;;;;16.49;100.00;98885.47;2594283;28;20061;-83
2023/06/24 00:07:26;;;;;;;1.58;1.40;;;;;;;16.14;100.00;98895.81;2593922;28;20053;-84
2023/06/24 00:08:42;;;;;;;1.30;1.20;;;;;;;16.44;100.00;98887.44;2594222;28;20072;-84
2023/06/24 00:09:58;;;;;;;1.58;1.45;;;;;;;16.35;100.00;98883.44;2594987;28;20417;-84
2023/06/24 00:11:14;;;;;;;1.52;1.42;;;;;;;16.42;100.00;98883.16;2594811;28;20140;-83
2023/06/24 00:12:29;;;;;;;1.60;1.50;;;;;;;16.34;100.00;98884.34;2593336;28;20049;-84
2023/06/24 00:13:45;;;;;;;1.67;1.50;;;;;;;16.29;100.00;98877.56;2593316;28;20144;-84
2023/06/24 00:15:00;;;;;;;3.50;1.70;;;;;;;16.39;100.00;98876.22;2594357;28;20599;-83
2023/06/24 00:16:16;;;;;;;1.55;1.35;;;;;;;16.32;100.00;98874.78;2593836;28;20050;-83
2023/06/24 00:17:31;;;;;;;2.25;1.55;;;;;;;16.37;100.00;98875.44;2594998;28;20532;-84
2023/06/24 00:18:47;;;;;;;2.85;1.55;;;;;;;16.42;100.00;98873.44;2594871;28;20265;-84
2023/06/24 00:20:05;;;;;;;1.60;1.50;;;;;;;16.55;100.00;98870.25;2593051;28;20049;-84
2023/06/24 00:21:20;;;;;;;2.92;1.77;;;;;;;16.32;100.00;98877.41;2594491;28;20547;-84
2023/06/24 00:22:43;;;;;;;1.83;1.73;;;;;;;16.44;100.00;98879.50;2592776;28;20489;-83
2023/06/24 00:24:04;;;;;;;1.92;1.73;;;;;;;16.52;100.00;98874.75;2592939;28;20970;-83
2023/06/24 00:25:19;;;;;;;2.22;2.03;;;;;;;16.49;100.00;98880.19;2595401;28;20075;-83
2023/06/24 00:26:36;;;;;;;1.88;1.65;;;;;;;16.51;100.00;98872.16;2593057;28;20467;-83
2023/06/24 00:27:52;;;;;;;2.30;2.10;;;;;;;16.39;100.00;98876.22;2593835;28;20548;-84
2023/06/24 00:29:08;;;;;;;2.08;1.88;;;;;;;16.56;100.00;98872.81;2595261;28;20080;-84
2023/06/24 00:30:23;;;;;;;2.20;1.90;;;;;;;16.52;100.00;98874.75;2593145;28;20413;-84
2023/06/24 00:31:39;;;;;;;2.15;1.95;;;;;;;16.37;100.00;98876.28;2592667;28;20052;-84
2023/06/24 00:32:54;;;;;;;1.92;1.77;;;;;;;16.42;100.00;98877.88;2589387;28;20056;-84
2023/06/24 00:34:10;;;;;;;3.33;1.88;;;;;;;16.42;100.00;98876.09;2601859;28;20132;-84
2023/06/24 00:35:25;;;;;;;2.58;2.00;;;;;;;16.46;100.00;98876.81;2598678;28;20116;-84
2023/06/24 00:36:41;;;;;;;2.42;2.20;;;;;;;16.54;100.00;98874.66;2593088;28;20045;-84
2023/06/24 00:37:58;;;;;;;2.38;2.10;;;;;;;16.41;100.00;98876.13;2588453;28;20108;-84
2023/06/24 00:39:13;;;;;;;2.22;2.03;;;;;;;16.44;100.00;98886.59;2592633;28;20049;-84
2023/06/24 00:40:29;;;;;;;2.28;2.05;;;;;;;16.50;100.00;98891.59;2594088;28;20073;-84
2023/06/24 00:41:44;;;;;;;3.55;2.10;;;;;;;16.25;100.00;98882.09;2592258;28;20057;-83
2023/06/24 00:43:01;;;;;;;2.85;2.35;;;;;;;16.19;100.00;98898.25;2594142;28;21025;-84
2023/06/24 00:44:17;;;;;;;3.33;2.28;;;;;;;16.18;100.00;98893.88;2592526;28;20168;-84
2023/06/24 00:45:33;;;;;;;5.10;2.67;;;;;;;16.07;100.00;98899.66;2592851;28;20058;-86
2023/06/24 00:46:49;;;;;;;2.50;2.30;;;;;;;16.27;100.00;98908.47;2593110;28;20559;-85
2023/06/24 00:48:05;;;;;;;2.72;2.53;;;;;;;16.40;100.00;98903.50;2594852;28;20540;-85
2023/06/24 00:49:21;;;;;;;2.70;2.30;;;;;;;16.44;100.00;98898.00;2592091;28;20145;-84
2023/06/24 00:50:37;;;;;;;3.65;2.67;;;;;;;16.50;100.00;98904.81;2593562;28;20521;-85
2023/06/24 00:51:52;;;;;;;4.28;2.40;;;;;;;16.45;100.00;98904.16;2593756;28;20056;-85
2023/06/24 00:53:08;;;;;;;2.70;2.40;;;;;;;16.55;100.00;98901.97;2592133;28;20081;-86
2023/06/24 00:54:30;;;;;;;2.65;2.33;;;;;;;16.58;100.00;98907.97;2593166;28;20045;-84
2023/06/24 00:55:46;;;;;;;3.35;2.28;;;;;;;16.63;100.00;98902.47;2592875;28;20132;-85
2023/06/24 00:57:02;;;;;;;2.53;2.20;;;;;;;16.50;100.00;98903.03;2593618;28;20057;-85
2023/06/24 00:58:20;;;;;;;3.20;2.05;;;;;;;16.61;100.00;98907.81;2593666;28;20053;-84
2023/06/24 00:59:37;;;;;;;4.30;2.10;;;;;;;16.57;100.00;98903.63;2592668;28;20096;-85
2023/06/24 01:00:56;;;;;;;2.30;2.10;;;;;;;16.42;100.00;98909.59;2593063;28;20073;-85
2023/06/24 01:02:12;;;;;;;2.95;2.30;;;;;;;16.62;100.00;98913.94;2594714;28;20046;-85
2023/06/24 01:03:29;;;;;;;2.78;2.30;;;;;;;16.46;100.00;98911.16;2593711;28;20049;-85
2023/06/24 01:04:46;;;;;;;2.55;2.03;;;;;;;16.45;100.00;98910.28;2592732;28;20081;-86
2023/06/24 01:06:03;;;;;;;4.13;1.80;;;;;;;16.50;100.00;98913.59;2593071;28;20232;-85
2023/06/24 01:07:18;;;;;;;2.53;2.05;;;;;;;16.50;100.00;98913.59;2593259;28;20493;-85
2023/06/24 01:08:34;;;;;;;3.22;2.15;;;;;;;16.35;100.00;98912.50;2594653;28;20077;-85
2023/06/24 01:09:50;;;;;;;3.15;2.47;;;;;;;16.51;100.00;98923.25;2594475;28;20107;-82
2023/06/24 01:11:05;;;;;;;3.35;2.10;;;;;;;16.41;100.00;98916.66;2593692;28;20088;-83
2023/06/24 01:12:21;;;;;;;2.25;1.98;;;;;;;16.43;100.00;98920.06;2592811;28;20623;-84
2023/06/24 01:13:37;;;;;;;2.33;2.05;;;;;;;16.42;100.00;98926.28;2594847;28;20112;-84
2023/06/24 01:14:52;;;;;;;2.92;2.30;;;;;;;16.47;100.00;98921.66;2592718;28;20065;-84
2023/06/24 01:16:23;;;;;;;2.53;2.20;;;;;;;16.53;100.00;98920.53;2593925;28;20122;-85
2023/06/24 01:18:08;;;;;;;3.05;2.13;;;;;;;16.44;100.00;98926.22;2592311;28;20152;-84
2023/06/24 01:19:46;;;;;;;2.67;2.13;;;;;;;16.33;100.00;98922.28;2593287;28;21006;-85
2023/06/24 01:21:08;;;;;;;2.40;2.03;;;;;;;16.33;100.00;98918.75;2593498;28;20050;-84
2023/06/24 01:23:02;;;;;;;2.90;1.90;;;;;;;16.50;100.00;98920.66;2591935;28;20700;-84
2023/06/24 01:24:31;;;;;;;3.25;1.92;;;;;;;16.58;100.00;98926.47;2594258;28;20053;-84
2023/06/24 01:26:15;;;;;;;2.97;2.05;;;;;;;16.59;100.00;98929.97;2592594;28;20100;-84
2023/06/24 01:27:52;;;;;;;2.38;1.90;;;;;;;16.46;100.00;98937.59;2595188;28;20077;-85
2023/06/24 01:29:46;;;;;;;2.78;1.98;;;;;;;16.52;100.00;98932.91;2593857;28;20058;-84
2023/06/24 01:31:25;;;;;;;2.95;2.17;;;;;;;16.57;100.00;98927.41;2592876;28;20050;-84
2023/06/24 01:33:04;;;;;;;3.75;2.20;;;;;;;16.62;100.00;98930.69;2594131;28;20077;-84
2023/06/24 01:34:53;;;;;;;3.92;2.35;;;;;;;16.56;100.00;98927.47;2592067;28;20100;-85
2023/06/24 01:36:12;;;;;;;2.42;2.03;;;;;;;16.60;100.00;98929.03;2593442;28;20132;-84
2023/06/24 01:37:41;;;;;;;6.72;2.63;;;;;;;16.57;100.00;98926.53;2593043;28;20080;-84
2023/06/24 01:39:06;;;;;;;4.70;2.05;;;;;;;16.40;100.00;98922.88;2593196;28;20437;-86
2023/06/24 01:40:33;;;;;;;2.78;2.20;;;;;;;16.59;100.00;98924.69;2593446;28;20548;-84
2023/06/24 01:41:59;;;;;;;2.88;2.33;;;;;;;16.57;100.00;98930.06;2593305;28;20076;-84
2023/06/24 01:43:17;;;;;;;2.83;2.40;;;;;;;16.49;100.00;98921.59;2591743;28;20319;-84
2023/06/24 01:44:33;;;;;;;3.53;2.25;;;;;;;16.55;100.00;98920.47;2593425;28;20539;-84
2023/06/24 01:45:52;;;;;;;2.88;2.42;;;;;;;16.58;100.00;98925.59;2593030;28;20045;-84
2023/06/24 01:47:09;;;;;;;3.78;2.42;;;;;;;16.65;100.00;98927.91;2594035;28;20171;-84
2023/06/24 01:48:28;;;;;;;3.03;2.38;;;;;;;16.36;100.00;98929.22;2594860;28;20485;-84
2023/06/24 01:49:45;;;;;;;3.58;2.30;;;;;;;16.28;100.00;98924.28;2590079;28;20549;-84
2023/06/24 01:51:13;;;;;;;2.50;2.20;;;;;;;16.15;100.00;98923.09;2593968;28;20050;-85
2023/06/24 01:52:30;;;;;;;3.30;2.33;;;;;;;16.24;100.00;98934.09;2595159;28;20327;-84
2023/06/24 01:53:54;;;;;;;2.40;2.00;;;;;;;16.20;100.00;98927.25;2594148;28;20155;-84
2023/06/24 01:55:15;;;;;;;3.53;2.30;;;;;;;16.19;100.00;98930.78;2594833;28;20085;-84
2023/06/24 01:56:33;;;;;;;6.30;2.55;;;;;;;16.38;100.00;98928.19;2595486;28;20060;-85
2023/06/24 01:57:51;;;;;;;3.20;2.38;;;;;;;16.26;100.00;98926.09;2594299;28;20073;-84
2023/06/24 01:59:08;;;;;;;3.45;2.33;;;;;;;16.39;100.00;98934.38;2594070;28;20057;-84
2023/06/24 02:00:24;;;;;;;2.88;2.30;;;;;;;16.17;100.00;98927.34;2593737;28;20108;-84
2023/06/24 02:01:40;;;;;;;3.50;2.53;;;;;;;16.21;100.00;98936.03;2590091;28;20041;-84
2023/06/24 02:02:56;;;;;;;2.70;2.08;;;;;;;16.19;100.00;98929.94;2594700;28;20449;-84
2023/06/24 02:04:15;;;;;;;3.63;2.50;;;;;;;16.27;100.00;98938.38;2594665;28;20084;-84
2023/06/24 02:05:32;;;;;;;3.05;2.42;;;;;;;16.28;100.00;98936.63;2595895;28;20164;-83
2023/06/24 02:06:48;;;;;;;3.45;2.10;;;;;;;16.23;100.00;98934.16;2594979;28;20470;-84
2023/06/24 02:08:05;;;;;;;3.28;2.30;;;;;;;16.10;100.00;98931.22;2594277;28;20049;-84
2023/06/24 02:09:21;;;;;;;2.97;2.38;;;;;;;16.40;100.00;98932.56;2593335;28;20045;-84
2023/06/24 02:10:39;;;;;;;3.63;2.30;;;;;;;16.28;100.00;98936.63;2594538;28;20663;-84
2023/06/24 02:11:57;;;;;;;3.67;2.30;;;;;;;16.18;100.00;98936.16;2595377;28;20049;-84
2023/06/24 02:13:13;;;;;;;3.40;2.25;;;;;;;16.17;100.00;98929.16;2593287;28;20062;-84
2023/06/24 02:14:30;;;;;;;2.90;2.38;;;;;;;16.30;100.00;98938.28;2594842;28;20042;-84
2023/06/24 02:15:48;;;;;;;3.70;2.47;;;;;;;16.33;100.00;98937.25;2594664;28;20956;-84
2023/06/24 02:17:07;;;;;;;3.63;2.30;;;;;;;16.16;100.00;98940.66;2596276;28;20528;-84
2023/06/24 02:18:25;;;;;;;2.78;2.20;;;;;;;16.17;100.00;98937.94;2595594;28;20084;-84
2023/06/24 02:19:42;;;;;;;3.42;2.20;;;;;;;15.94;100.00;98941.56;2594777;28;20085;-84
2023/06/24 02:20:59;;;;;;;3.90;2.50;;;;;;;16.18;100.00;98947.56;2592759;28;20053;-84
2023/06/24 02:22:16;;;;;;;2.97;2.35;;;;;;;16.04;100.00;98932.31;2593240;28;20081;-84
2023/06/24 02:23:35;;;;;;;4.30;2.30;;;;;;;16.01;100.00;98937.75;2595184;28;20052;-84
2023/06/24 02:24:51;;;;;;;3.67;2.50;;;;;;;16.13;100.00;98941.63;2595041;28;20054;-84
2023/06/24 02:26:07;;;;;;;6.03;2.67;;;;;;;16.14;100.00;98938.06;2594175;28;20512;-84
2023/06/24 02:27:24;;;;;;;3.00;2.65;;;;;;;16.19;100.00;98941.34;2594595;28;20057;-85
2023/06/24 02:28:40;;;;;;;3.40;2.78;;;;;;;16.19;100.00;98929.94;2594025;28;20466;-84
2023/06/24 02:29:57;;;;;;;4.03;2.50;;;;;;;16.26;100.00;98935.81;2594915;28;20136;-85
2023/06/24 02:31:14;;;;;;;3.92;2.58;;;;;;;16.22;100.00;98935.09;2595075;28;20085;-85
2023/06/24 02:32:30;;;;;;;2.92;2.42;;;;;;;16.34;100.00;98942.50;2594113;28;20478;-85
2023/06/24 02:33:46;;;;;;;3.35;2.47;;;;;;;16.18;100.00;98946.72;2595175;28;20616;-84
2023/06/24 02:35:02;;;;;;;4.13;2.70;;;;;;;15.99;100.00;98938.72;2594010;28;20050;-85
2023/06/24 02:36:18;;;;;;;3.28;2.50;;;;;;;16.00;100.00;98940.44;2593252;28;20049;-84
2023/06/24 02:37:34;;;;;;;4.45;3.10;;;;;;;15.90;100.00;98934.69;2593362;28;20100;-84
2023/06/24 02:38:49;;;;;;;3.83;2.90;;;;;;;16.09;100.00;98945.34;2592678;28;20055;-84
2023/06/24 02:40:07;;;;;;;5.18;2.65;;;;;;;16.12;100.00;98944.31;2593041;28;20081;-84
2023/06/24 02:41:23;;;;;;;3.22;2.55;;;;;;;16.08;100.00;98940.97;2594749;28;20124;-84
2023/06/24 02:42:38;;;;;;;4.13;2.90;;;;;;;16.19;100.00;98946.63;2595461;28;20041;-84
2023/06/24 02:43:54;;;;;;;3.38;2.80;;;;;;;16.27;100.00;98940.19;2593389;28;20050;-84
2023/06/24 02:45:10;;;;;;;3.83;2.90;;;;;;;16.04;100.00;98937.59;2595095;28;20050;-84
2023/06/24 02:46:29;;;;;;;4.80;2.80;;;;;;;16.04;100.00;98948.16;2593653;28;20054;-84
2023/06/24 02:47:47;;;;;;;7.55;3.58;;;;;;;16.01;100.00;98944.78;2592863;28;20448;-85
2023/06/24 02:49:03;;;;;;;4.78;2.92;;;;;;;16.10;100.00;98944.41;2594417;28;20053;-84
2023/06/24 02:50:19;;;;;;;3.70;2.90;;;;;;;16.13;100.00;98946.03;2594686;28;20049;-85
2023/06/24 02:51:37;;;;;;;4.80;2.80;;;;;;;16.15;100.00;98949.50;2594261;28;20046;-84
2023/06/24 02:52:52;;;;;;;3.22;2.55;;;;;;;16.16;100.00;98952.06;2595796;28;20136;-85
2023/06/24 02:54:09;;;;;;;3.85;2.70;;;;;;;16.14;100.00;98953.06;2595288;28;20042;-84
2023/06/24 02:55:26;;;;;;;3.65;2.60;;;;;;;16.21;100.00;98951.88;2595219;28;20563;-85
2023/06/24 02:56:43;;;;;;;3.95;2.95;;;;;;;16.09;100.00;98956.75;2594850;28;20042;-85
2023/06/24 02:58:00;;;;;;;5.50;3.00;;;;;;;16.22;100.00;98965.03;2594559;28;20081;-84
2023/06/24 02:59:16;;;;;;;3.65;2.60;;;;;;;16.12;100.00;98962.81;2592698;28;20050;-84
2023/06/24 03:00:33;;;;;;;4.28;2.38;;;;;;;15.98;100.00;98972.19;2595825;28;20889;-85
2023/06/24 03:01:50;;;;;;;3.97;2.88;;;;;;;16.31;100.00;98973.47;2593099;28;20693;-84
2023/06/24 03:03:06;;;;;;;3.97;2.63;;;;;;;16.06;100.00;98977.13;2594672;28;20119;-85
2023/06/24 03:04:22;;;;;;;3.53;2.60;;;;;;;16.23;100.00;98972.03;2594110;28;20115;-84
2023/06/24 03:05:38;;;;;;;4.03;2.75;;;;;;;16.07;100.00;98977.09;2594666;28;20677;-84
2023/06/24 03:06:54;;;;;;;5.95;2.50;;;;;;;16.25;100.00;98971.94;2593286;28;20112;-85
2023/06/24 03:08:10;;;;;;;4.53;2.70;;;;;;;16.24;100.00;98978.16;2595235;28;20049;-84
2023/06/24 03:09:34;;;;;;;6.75;2.83;;;;;;;16.15;100.00;98971.47;2594622;28;20658;-84
2023/06/24 03:10:50;;;;;;;5.32;3.20;;;;;;;16.20;100.00;98972.16;2594844;28;20458;-84
2023/06/24 03:12:06;;;;;;;4.25;2.40;;;;;;;16.18;100.00;98971.34;2594769;28;20437;-84
2023/06/24 03:13:22;;;;;;;4.43;2.88;;;;;;;16.31;100.00;98984.03;2594190;28;20072;-84
2023/06/24 03:14:38;;;;;;;4.18;2.78;;;;;;;16.13;100.00;98980.38;2593638;28;20064;-84
2023/06/24 03:15:54;;;;;;;6.00;3.15;;;;;;;16.21;100.00;98981.81;2593766;28;20497;-85
2023/06/24 03:17:10;;;;;;;4.05;2.65;;;;;;;16.24;100.00;98980.78;2593710;28;20046;-84
2023/06/24 03:18:26;;;;;;;3.17;2.53;;;;;;;16.08;100.00;98985.88;2592664;28;20049;-84
2023/06/24 03:19:43;;;;;;;3.47;2.58;;;;;;;16.30;100.00;98985.84;2592664;28;20056;-85
2023/06/24 03:20:58;;;;;;;3.95;2.70;;;;;;;16.21;100.00;98981.81;2594444;28;20050;-84
2023/06/24 03:22:13;;;;;;;4.43;2.97;;;;;;;16.12;100.00;98992.75;2593376;28;20488;-84
2023/06/24 03:23:29;;;;;;;3.90;2.75;;;;;;;16.12;100.00;98992.75;2594991;28;20053;-85
2023/06/24 03:24:45;;;;;;;4.47;2.90;;;;;;;16.11;100.00;98988.38;2593579;28;20505;-84
2023/06/24 03:26:00;;;;;;;3.70;2.80;;;;;;;16.22;100.00;98986.16;2594100;28;20109;-84
2023/06/24 03:27:16;;;;;;;3.78;2.90;;;;;;;16.15;100.00;98995.25;2594917;28;20053;-85
2023/06/24 03:28:32;;;;;;;3.65;2.90;;;;;;;16.11;100.00;98985.75;2592825;28;20049;-85
2023/06/24 03:29:47;;;;;;;5.60;2.80;;;;;;;16.13;100.00;98980.38;2594403;28;20053;-84
2023/06/24 03:31:02;;;;;;;4.18;3.05;;;;;;;16.19;100.00;98988.06;2594016;28;20053;-84
2023/06/24 03:32:18;;;;;;;3.90;2.70;;;;;;;16.24;100.00;98989.59;2594069;28;20760;-84
2023/06/24 03:33:34;;;;;;;5.35;3.40;;;;;;;16.18;100.00;98989.84;2594032;28;20132;-84
2023/06/24 03:34:49;;;;;;;4.18;2.97;;;;;;;16.18;100.00;98994.28;2594082;28;20049;-85
2023/06/24 03:36:05;;;;;;;4.72;3.05;;;;;;;16.28;100.00;98994.72;2595055;28;20078;-84
2023/06/24 03:37:20;;;;;;;5.30;3.40;;;;;;;16.29;100.00;98993.81;2594832;28;20049;-85
2023/06/24 03:38:36;;;;;;;5.07;3.70;;;;;;;16.31;100.00;98992.84;2594086;28;20061;-85
2023/06/24 03:39:52;;;;;;;4.15;3.30;;;;;;;16.10;100.00;99006.00;2595244;28;20577;-84
2023/06/24 03:41:07;;;;;;;3.88;2.92;;;;;;;16.22;100.00;99007.28;2594171;28;20072;-85
2023/06/24 03:42:23;;;;;;;5.55;3.10;;;;;;;16.31;100.00;99008.69;2594623;28;20058;-85
2023/06/24 03:43:39;;;;;;;4.45;2.95;;;;;;;16.24;100.00;99013.38;2594512;28;20099;-85
2023/06/24 03:44:55;;;;;;;3.83;2.90;;;;;;;16.24;100.00;99010.72;2595309;28;20539;-84
2023/06/24 03:46:11;;;;;;;4.88;3.10;;;;;;;16.28;100.00;99013.22;2593562;28;20046;-84
2023/06/24 03:47:27;;;;;;;4.03;3.10;;;;;;;16.35;100.00;99012.91;2594976;28;20775;-85
2023/06/24 03:48:43;;;;;;;4.43;3.17;;;;;;;16.25;100.00;99001.00;2593483;28;20049;-85
2023/06/24 03:49:58;;;;;;;4.70;3.22;;;;;;;16.18;100.00;99010.97;2592440;28;20045;-84
2023/06/24 03:51:14;;;;;;;5.05;3.47;;;;;;;16.30;100.00;99008.75;2593659;28;20081;-84
2023/06/24 03:52:29;;;;;;;5.85;3.60;;;;;;;16.32;100.00;99012.16;2594488;28;20533;-84
2023/06/24 03:53:45;;;;;;;3.47;2.97;;;;;;;16.36;100.00;99011.97;2593639;28;20050;-85
2023/06/24 03:55:03;;;;;;;4.22;3.35;;;;;;;16.26;100.00;99017.72;2594221;28;20082;-84
2023/06/24 03:56:18;;;;;;;3.67;3.10;;;;;;;16.44;100.00;99014.28;2594791;28;20053;-84
2023/06/24 03:57:34;;;;;;;4.90;3.28;;;;;;;16.33;100.00;99021.81;2594249;28;20158;-84
2023/06/24 03:58:50;;;;;;;4.65;3.30;;;;;;;16.40;100.00;99012.72;2594734;28;20410;-85
2023/06/24 04:00:16;;;;;;;5.00;3.42;;;;;;;16.32;100.00;99012.16;2594652;28;20049;-85
2023/06/24 04:01:32;;;;;;;4.43;3.40;;;;;;;16.42;100.00;99013.50;2592501;28;20124;-85
2023/06/24 04:02:47;;;;;;;5.63;3.22;;;;;;;16.41;100.00;99017.06;2588507;28;20057;-85
2023/06/24 04:04:04;;;;;;;5.20;3.28;;;;;;;16.43;100.00;99017.03;2592538;28;20050;-85
2023/06/24 04:05:20;;;;;;;4.88;3.58;;;;;;;16.29;100.00;99015.81;2593881;28;20135;-85
2023/06/24 04:06:36;;;;;;;5.22;3.55;;;;;;;16.24;100.00;99016.00;2595224;28;20054;-85
2023/06/24 04:07:52;;;;;;;5.47;3.45;;;;;;;16.35;100.00;99012.91;2594735;28;20049;-84
2023/06/24 04:09:09;;;;;;;4.60;3.55;;;;;;;16.21;100.00;99015.28;2592029;28;20701;-85
2023/06/24 04:10:25;;;;;;;4.50;3.45;;;;;;;16.28;100.00;99016.75;2593306;28;20073;-85
2023/06/24 04:11:41;;;;;;;6.15;3.35;;;;;;;16.21;100.00;99015.28;2591291;28;20049;-85
2023/06/24 04:12:56;;;;;;;5.18;3.65;;;;;;;16.38;100.00;99011.94;2593599;28;20053;-84
2023/06/24 04:14:12;;;;;;;4.78;3.25;;;;;;;16.31;100.00;99013.97;2594933;28;20416;-85
2023/06/24 04:15:27;;;;;;;5.78;3.78;;;;;;;16.42;100.00;99010.84;2592816;28;20523;-85
2023/06/24 04:16:43;;;;;;;6.60;3.60;;;;;;;16.30;100.00;99006.97;2594845;28;20050;-84
2023/06/24 04:17:59;;;;;;;5.28;3.72;;;;;;;16.41;100.00;99009.16;2595454;28;20045;-85
2023/06/24 04:19:14;;;;;;;5.00;3.40;;;;;;;16.44;100.00;99003.72;2594302;28;20103;-84
2023/06/24 04:20:29;;;;;;;7.70;3.88;;;;;;;16.47;100.00;99000.94;2593516;28;20054;-85
2023/06/24 04:21:45;;;;;;;4.97;3.90;;;;;;;16.45;100.00;99010.72;2594430;28;21083;-85
2023/06/24 04:23:01;;;;;;;6.65;3.83;;;;;;;16.22;100.00;99006.41;2592173;28;20045;-85
2023/06/24 04:24:16;;;;;;;5.50;4.10;;;;;;;16.32;100.00;99006.88;2592374;28;20053;-85
2023/06/24 04:25:32;;;;;;;6.13;3.72;;;;;;;16.36;100.00;99008.50;2588471;28;20057;-85
2023/06/24 04:26:47;;;;;;;5.07;3.55;;;;;;;16.28;100.00;99003.53;2593330;28;20069;-84
2023/06/24 04:28:04;;;;;;;5.85;3.60;;;;;;;16.18;100.00;99008.31;2593850;28;20502;-84
2023/06/24 04:29:20;;;;;;;5.00;3.83;;;;;;;16.26;100.00;99010.66;2592727;28;20547;-84
2023/06/24 04:30:35;;;;;;;6.60;3.90;;;;;;;16.38;100.00;99006.63;2594592;28;20054;-85
2023/06/24 04:31:51;;;;;;;4.70;3.83;;;;;;;16.46;100.00;99003.66;2595371;28;20065;-84
2023/06/24 04:33:07;;;;;;;6.68;4.30;;;;;;;16.60;100.00;99016.25;2592948;28;20053;-85
2023/06/24 04:34:22;;;;;;;6.00;4.03;;;;;;;16.36;100.00;99009.34;2593187;28;20891;-84
2023/06/24 04:35:38;;;;;;;6.13;4.18;;;;;;;16.35;100.00;99017.34;2592167;28;20482;-85
2023/06/24 04:36:54;;;;;;;6.03;4.05;;;;;;;16.26;100.00;99015.94;2593727;28;20061;-85
2023/06/24 04:38:09;;;;;;;7.63;4.47;;;;;;;16.36;100.00;99016.41;2592044;28;20053;-85
2023/06/24 04:39:28;;;;;;;7.57;4.25;;;;;;;16.47;100.00;99018.59;2594938;28;20062;-85
2023/06/24 04:40:45;;;;;;;5.50;3.92;;;;;;;16.30;100.00;99016.66;2594095;28;20063;-84
2023/06/24 04:42:00;;;;;;;6.35;4.60;;;;;;;16.49;100.00;99017.63;2594258;28;20564;-85
2023/06/24 04:43:16;;;;;;;5.28;4.03;;;;;;;16.58;100.00;99023.41;2594312;28;20400;-85
2023/06/24 04:44:31;;;;;;;5.50;4.32;;;;;;;16.59;100.00;99023.34;2594283;28;20092;-85
2023/06/24 04:45:47;;;;;;;5.68;4.20;;;;;;;16.36;100.00;99027.84;2592245;28;20418;-85
2023/06/24 04:47:03;;;;;;;6.22;4.15;;;;;;;16.56;100.00;99023.50;2592968;28;20545;-84
2023/06/24 04:48:18;;;;;;;6.05;4.35;;;;;;;16.77;100.00;99026.09;2594395;28;20058;-84
2023/06/24 04:49:34;;;;;;;6.18;4.00;;;;;;;16.52;100.00;99027.19;2593887;28;20413;-85
2023/06/24 04:50:49;;;;;;;6.10;4.13;;;;;;;16.64;100.00;99024.00;2594460;28;20049;-84
2023/06/24 04:52:06;;;;;;;7.38;4.18;;;;;;;16.57;100.00;99029.63;2594084;28;20286;-85
2023/06/24 04:53:21;;;;;;;6.32;3.90;;;;;;;16.63;100.00;99026.72;2594750;28;20594;-85
2023/06/24 04:54:37;;;;;;;6.15;3.90;;;;;;;16.73;100.00;99029.81;2594094;28;20054;-84
2023/06/24 04:55:53;;;;;;;6.47;4.45;;;;;;;16.79;100.00;99019.84;2592466;28;20530;-85
2023/06/24 04:57:22;;;;;;;6.60;4.20;;;;;;;16.63;100.00;99027.56;2593030;28;20108;-85
2023/06/24 04:58:37;;;;;;;5.53;4.40;;;;;;;16.67;100.00;99026.50;2593439;28;20049;-84
2023/06/24 04:59:53;;;;;;;7.60;4.35;;;;;;;16.70;100.00;99032.63;2592132;28;20057;-84
2023/06/24 05:01:09;;;;;;;5.93;4.45;;;;;;;16.69;100.00;99033.50;2594206;28;20053;-85
2023/06/24 05:02:25;;;;;;;7.47;5.00;;;;;;;16.72;100.00;99034.25;2591939;28;20469;-84
2023/06/24 05:03:40;;;;;;;6.70;4.40;;;;;;;16.71;100.00;99032.53;2602859;28;20049;-85
2023/06/24 05:04:56;;;;;;;6.53;4.32;;;;;;;16.69;100.00;99030.88;2598381;28;20049;-85
2023/06/24 05:06:12;;;;;;;6.22;4.53;;;;;;;16.82;100.00;99034.69;2591800;28;20513;-85
2023/06/24 05:07:27;;;;;;;5.82;4.78;;;;;;;16.95;100.00;99037.66;2594956;28;20092;-85
2023/06/24 05:08:43;;;;;;;6.85;4.85;;;;;;;16.82;100.00;99044.41;2588280;28;20082;-85
2023/06/24 05:09:59;;;;;;;6.68;4.68;;;;;;;16.79;100.00;99041.00;2592614;28;20511;-86
2023/06/24 05:11:14;;;;;;;7.43;5.18;;;;;;;16.99;100.00;99036.63;2593107;28;20049;-83
2023/06/24 05:12:30;;;;;;;6.85;4.85;;;;;;;16.98;100.00;99036.69;2588616;28;20448;-84
2023/06/24 05:13:46;;;;;;;6.32;5.15;;;;;;;17.05;100.00;99036.38;2592230;28;20065;-85
2023/06/24 05:15:02;;;;;;;7.40;5.20;;;;;;;17.20;100.00;99040.06;2594393;28;20041;-85
2023/06/24 05:16:17;;;;;;;7.03;4.97;;;;;;;17.14;100.00;99036.84;2593066;28;20057;-85
2023/06/24 05:17:33;;;;;;;8.48;5.07;;;;;;;17.20;100.00;99040.06;2592117;28;20065;-85
2023/06/24 05:18:48;;;;;;;7.10;5.40;;;;;;;17.15;100.00;99042.09;2588671;28;20913;-84
2023/06/24 05:20:05;;;;;;;8.13;5.50;;;;;;;17.19;100.00;99046.31;2592514;28;20045;-85
2023/06/24 05:21:20;;;;;;;7.65;5.55;;;;;;;17.05;100.00;99048.72;2588299;28;20052;-84
2023/06/24 05:22:36;;;;;;;7.07;5.22;;;;;;;17.22;100.00;99048.81;2595775;28;20057;-84
2023/06/24 05:23:52;;;;;;;6.18;4.60;;;;;;;17.20;100.00;99047.19;2594546;28;20054;-86
2023/06/24 05:25:08;;;;;;;6.93;4.30;;;;;;;16.86;100.00;99040.72;2594052;28;20409;-84
2023/06/24 05:26:23;;;;;;;7.93;4.55;;;;;;;16.87;100.00;99047.72;2593811;28;20050;-84
2023/06/24 05:27:44;;;;;;;5.82;4.88;;;;;;;17.16;100.00;99050.88;2595424;28;20112;-87
2023/06/24 05:28:59;;;;;;;7.25;5.03;;;;;;;17.12;100.00;99044.00;2595951;28;20045;-84
2023/06/24 05:30:15;;;;;;;6.45;5.03;;;;;;;17.10;100.00;99053.81;2595833;28;20108;-83
2023/06/24 05:31:31;;;;;;;8.30;5.32;;;;;;;17.22;100.00;99047.97;2594266;28;20065;-84
2023/06/24 05:32:46;;;;;;;7.05;4.90;;;;;;;17.15;100.00;99047.38;2595680;28;20049;-84
2023/06/24 05:34:02;;;;;;;6.35;5.20;;;;;;;17.25;100.00;99053.09;2594916;28;20120;-85
2023/06/24 05:35:17;;;;;;;6.80;5.18;;;;;;;17.08;100.00;99052.09;2593940;28;20411;-84
2023/06/24 05:36:33;;;;;;;6.40;5.00;;;;;;;17.14;100.00;99061.53;2593271;28;20049;-84
2023/06/24 05:37:49;;;;;;;5.88;4.90;;;;;;;17.28;100.00;99057.41;2589855;28;20061;-84
2023/06/24 05:39:07;;;;;;;7.15;5.20;;;;;;;17.12;100.00;99058.09;2594192;28;20050;-84
2023/06/24 05:40:23;;;;;;;6.47;4.80;;;;;;;17.28;100.00;99066.19;2595668;28;20050;-84
2023/06/24 05:41:39;;;;;;;6.00;5.25;;;;;;;17.44;100.00;99060.19;2593405;28;20045;-84
2023/06/24 05:42:54;;;;;;;7.10;5.88;;;;;;;17.58;100.00;99065.69;2595358;28;20488;-84
2023/06/24 05:44:10;;;;;;;8.20;5.30;;;;;;;17.35;100.00;99072.94;2593382;28;20096;-84
2023/06/24 05:45:26;;;;;;;5.68;4.20;;;;;;;17.03;100.00;99061.16;2590223;28;20045;-84
2023/06/24 05:46:42;;;;;;;9.02;5.35;;;;;;;17.10;100.00;99067.03;2594674;28;20183;-84
2023/06/24 05:47:57;;;;;;;6.60;4.68;;;;;;;17.11;100.00;99068.75;2595031;28;20045;-85
2023/06/24 05:49:13;;;;;;;8.48;5.43;;;;;;;17.25;100.00;99068.09;2590253;28;20057;-84
2023/06/24 05:50:29;;;;;;;8.32;4.97;;;;;;;17.16;100.00;99064.97;2595579;28;20080;-84
2023/06/24 05:51:44;;;;;;;9.90;5.53;;;;;;;17.13;100.00;99073.06;2594619;28;20049;-84
2023/06/24 05:53:00;;;;;;;6.30;4.97;;;;;;;17.05;100.00;99067.22;2596183;28;20459;-84
2023/06/24 05:54:15;;;;;;;6.00;4.95;;;;;;;17.08;100.00;99073.25;2593740;28;20149;-84
2023/06/24 05:55:31;;;;;;;7.28;5.35;;;;;;;17.08;100.00;99072.38;2595434;28;20048;-85
2023/06/24 05:56:46;;;;;;;6.85;5.40;;;;;;;17.32;100.00;99075.72;2593425;28;20057;-85
2023/06/24 05:58:02;;;;;;;7.13;5.53;;;;;;;17.29;100.00;99083.78;2594292;28;20049;-84
2023/06/24 05:59:17;;;;;;;7.55;5.55;;;;;;;17.19;100.00;99075.41;2595201;28;20049;-84
2023/06/24 06:00:33;;;;;;;7.70;5.82;;;;;;;17.42;100.00;99084.09;2594201;28;20053;-84